Time;durP1;ratioP1;P1;durP2;ratioP2;P2;SDS_P1;SDS_P2;PMS_P1;PMS_P2;Temp;Humidity;BMP_temperature;BMP_pressure;BME280_temperature;BME280_humidity;BME280_pressure;Samples;Min_cycle;Max_cycle;Signal;HPM_P1;HPM_P2
2022/02/27 00:02:15;;;;;;;15.77;7.95;;;;;;;;;;5013825;28;20645;-45
2022/02/27 00:04:41;;;;;;;13.47;7.30;;;;;;;;;;5013814;28;20197;-44
2022/02/27 00:07:07;;;;;;;14.97;7.50;;;;;;;;;;5013658;28;20821;-45
2022/02/27 00:09:33;;;;;;;14.15;6.90;;;;;;;;;;5013776;28;20891;-44
2022/02/27 00:11:59;;;;;;;14.37;7.90;;;;;;;;;;5014005;28;20503;-44
2022/02/27 00:14:25;;;;;;;13.57;6.95;;;;;;;;;;5014062;28;20408;-45
2022/02/27 00:16:51;;;;;;;12.40;8.73;;;;;;;;;;5013149;28;20203;-45
2022/02/27 00:19:17;;;;;;;12.23;7.50;;;;;;;;;;5013617;28;20404;-45
2022/02/27 00:21:43;;;;;;;18.10;8.40;;;;;;;;;;5014052;28;20399;-45
2022/02/27 00:24:10;;;;;;;10.57;7.75;;;;;;;;;;5013616;28;20262;-45
2022/02/27 00:26:36;;;;;;;17.58;8.30;;;;;;;;;;5013406;28;20795;-45
2022/02/27 00:29:02;;;;;;;14.70;7.80;;;;;;;;;;5013331;28;20168;-45
2022/02/27 00:31:28;;;;;;;13.40;7.10;;;;;;;;;;5013468;28;20191;-44
2022/02/27 00:33:54;;;;;;;13.70;7.53;;;;;;;;;;5013405;28;20407;-45
2022/02/27 00:36:20;;;;;;;12.90;8.17;;;;;;;;;;5013196;28;20407;-44
2022/02/27 00:38:46;;;;;;;13.18;7.35;;;;;;;;;;5013499;28;20417;-44
2022/02/27 00:41:12;;;;;;;16.17;7.43;;;;;;;;;;5013088;28;20263;-45
2022/02/27 00:43:38;;;;;;;12.47;7.30;;;;;;;;;;5013301;28;20451;-44
2022/02/27 00:46:07;;;;;;;16.50;7.82;;;;;;;;;;5012765;28;20499;-44
2022/02/27 00:48:34;;;;;;;14.32;7.40;;;;;;;;;;5013024;28;20181;-45
2022/02/27 00:51:00;;;;;;;19.85;6.75;;;;;;;;;;5012577;28;20662;-45
2022/02/27 00:53:26;;;;;;;13.90;8.23;;;;;;;;;;5012924;28;20668;-45
2022/02/27 00:55:52;;;;;;;18.93;7.60;;;;;;;;;;5012901;28;20272;-45
2022/02/27 00:58:18;;;;;;;13.23;7.28;;;;;;;;;;5012824;28;20443;-45
2022/02/27 01:00:44;;;;;;;13.63;8.07;;;;;;;;;;5012811;28;20164;-45
2022/02/27 01:03:10;;;;;;;24.33;9.63;;;;;;;;;;5013370;28;20212;-45
2022/02/27 01:05:37;;;;;;;13.32;7.15;;;;;;;;;;5012114;28;20404;-45
2022/02/27 01:08:03;;;;;;;11.50;7.47;;;;;;;;;;5010961;28;20657;-45
2022/02/27 01:10:29;;;;;;;18.02;8.57;;;;;;;;;;5012163;28;20582;-45
2022/02/27 01:12:55;;;;;;;14.05;7.95;;;;;;;;;;5012670;28;20703;-45
2022/02/27 01:15:21;;;;;;;16.27;8.23;;;;;;;;;;5012781;28;20208;-45
2022/02/27 01:17:47;;;;;;;18.45;7.22;;;;;;;;;;5012475;28;20428;-46
2022/02/27 01:20:13;;;;;;;9.52;7.43;;;;;;;;;;5012153;28;20164;-45
2022/02/27 01:22:39;;;;;;;13.02;7.00;;;;;;;;;;5012233;28;20306;-45
2022/02/27 01:25:06;;;;;;;11.80;7.32;;;;;;;;;;5012850;28;20200;-45
2022/02/27 01:27:32;;;;;;;13.48;6.90;;;;;;;;;;5012310;28;20555;-45
2022/02/27 01:29:58;;;;;;;16.73;8.25;;;;;;;;;;5012180;28;20183;-45
2022/02/27 01:32:24;;;;;;;17.90;7.07;;;;;;;;;;5012295;28;20207;-46
2022/02/27 01:34:51;;;;;;;16.58;7.90;;;;;;;;;;5012648;28;20223;-45
2022/02/27 01:37:17;;;;;;;16.83;7.13;;;;;;;;;;5012289;28;20221;-46
2022/02/27 01:39:43;;;;;;;17.25;8.35;;;;;;;;;;5011957;28;20257;-45
2022/02/27 01:42:13;;;;;;;18.02;6.80;;;;;;;;;;5012273;28;20175;-45
2022/02/27 01:44:43;;;;;;;12.35;7.30;;;;;;;;;;5012178;28;20567;-45
2022/02/27 01:47:14;;;;;;;10.10;7.32;;;;;;;;;;5012314;28;20184;-45
2022/02/27 01:49:41;;;;;;;10.15;7.22;;;;;;;;;;5012211;28;20191;-46
2022/02/27 01:52:08;;;;;;;17.08;7.90;;;;;;;;;;5012032;28;20215;-46
2022/02/27 01:54:34;;;;;;;23.63;8.45;;;;;;;;;;5012064;28;20186;-46
2022/02/27 01:57:00;;;;;;;22.05;7.55;;;;;;;;;;5011732;28;20290;-45
2022/02/27 01:59:26;;;;;;;16.08;9.20;;;;;;;;;;5011776;28;20180;-45
2022/02/27 02:01:52;;;;;;;15.13;7.90;;;;;;;;;;5011633;28;20176;-46
2022/02/27 02:04:18;;;;;;;16.50;7.60;;;;;;;;;;5011771;28;20283;-45
2022/02/27 02:06:44;;;;;;;13.68;7.75;;;;;;;;;;5011491;28;20427;-45
2022/02/27 02:09:10;;;;;;;15.50;7.13;;;;;;;;;;5011474;28;20181;-46
2022/02/27 02:11:37;;;;;;;11.73;7.70;;;;;;;;;;5011629;28;20891;-45
2022/02/27 02:14:03;;;;;;;19.13;8.45;;;;;;;;;;5011518;28;20403;-46
2022/02/27 02:16:44;;;;;;;19.48;8.20;;;;;;;;;;5010244;28;20183;-46
2022/02/27 02:19:10;;;;;;;18.58;8.18;;;;;;;;;;5010928;28;20267;-45
2022/02/27 02:21:40;;;;;;;16.02;7.43;;;;;;;;;;5011581;28;20169;-45
2022/02/27 02:24:06;;;;;;;16.42;7.88;;;;;;;;;;5011376;28;20200;-45
2022/02/27 02:26:32;;;;;;;15.15;7.85;;;;;;;;;;5011401;28;20550;-46
2022/02/27 02:28:58;;;;;;;13.25;7.80;;;;;;;;;;5011224;28;20247;-45
2022/02/27 02:31:24;;;;;;;16.50;7.65;;;;;;;;;;5011405;28;20239;-45
2022/02/27 02:33:50;;;;;;;22.30;8.50;;;;;;;;;;5011184;28;20168;-45
2022/02/27 02:36:16;;;;;;;17.50;9.00;;;;;;;;;;5011400;28;20923;-46
2022/02/27 02:38:42;;;;;;;20.77;7.87;;;;;;;;;;5011380;28;20518;-46
2022/02/27 02:41:08;;;;;;;13.70;7.73;;;;;;;;;;5011095;28;20412;-45
2022/02/27 02:43:35;;;;;;;15.52;7.80;;;;;;;;;;5011163;28;20450;-45
2022/02/27 02:46:01;;;;;;;18.05;8.70;;;;;;;;;;5011288;28;20165;-45
2022/02/27 02:48:27;;;;;;;21.95;7.05;;;;;;;;;;5011098;28;20216;-45
2022/02/27 02:50:53;;;;;;;22.13;8.03;;;;;;;;;;5011027;28;20168;-45
2022/02/27 02:53:19;;;;;;;12.07;7.43;;;;;;;;;;5011238;28;20499;-46
2022/02/27 02:55:45;;;;;;;13.20;7.85;;;;;;;;;;5011186;28;20168;-46
2022/02/27 02:58:11;;;;;;;16.03;8.60;;;;;;;;;;5010997;28;20749;-45
2022/02/27 03:00:37;;;;;;;14.27;7.35;;;;;;;;;;5010935;28;20746;-45
2022/02/27 03:03:04;;;;;;;12.40;7.13;;;;;;;;;;5010607;28;20200;-47
2022/02/27 03:05:30;;;;;;;22.35;8.70;;;;;;;;;;5010545;28;20408;-47
2022/02/27 03:07:56;;;;;;;20.13;8.35;;;;;;;;;;5010778;28;20192;-47
2022/02/27 03:10:22;;;;;;;7.93;6.53;;;;;;;;;;5010997;28;20172;-47
2022/02/27 03:12:48;;;;;;;14.07;7.20;;;;;;;;;;5011186;28;20408;-47
2022/02/27 03:15:14;;;;;;;11.90;5.93;;;;;;;;;;5011091;28;21115;-47
2022/02/27 03:17:40;;;;;;;13.37;7.50;;;;;;;;;;5010875;28;20529;-47
2022/02/27 03:20:06;;;;;;;17.13;7.53;;;;;;;;;;5010765;28;20422;-47
2022/02/27 03:22:32;;;;;;;13.57;6.68;;;;;;;;;;5010847;28;20411;-47
2022/02/27 03:24:58;;;;;;;10.23;7.23;;;;;;;;;;5010867;28;20200;-47
2022/02/27 03:27:24;;;;;;;10.30;6.30;;;;;;;;;;5010920;28;20498;-47
2022/02/27 03:29:50;;;;;;;12.00;6.10;;;;;;;;;;5010596;28;20887;-47
2022/02/27 03:32:16;;;;;;;13.38;6.35;;;;;;;;;;5013339;28;20786;-47
2022/02/27 03:34:42;;;;;;;17.03;6.43;;;;;;;;;;5014618;28;20172;-47
2022/02/27 03:37:07;;;;;;;8.87;5.90;;;;;;;;;;5014374;28;20466;-47
2022/02/27 03:39:33;;;;;;;10.77;5.77;;;;;;;;;;5014292;28;20432;-47
2022/02/27 03:41:59;;;;;;;18.88;7.18;;;;;;;;;;5014303;28;20449;-47
2022/02/27 03:44:25;;;;;;;12.27;6.90;;;;;;;;;;5014203;28;20211;-45
2022/02/27 03:46:51;;;;;;;8.30;6.37;;;;;;;;;;5014243;28;20263;-45
2022/02/27 03:49:17;;;;;;;16.63;6.47;;;;;;;;;;5014156;28;20763;-46
2022/02/27 03:51:43;;;;;;;10.80;6.50;;;;;;;;;;5014132;28;20495;-45
2022/02/27 03:54:09;;;;;;;17.53;6.60;;;;;;;;;;5014239;28;20395;-46
2022/02/27 03:56:35;;;;;;;11.30;6.63;;;;;;;;;;5014178;28;20868;-46
2022/02/27 03:59:01;;;;;;;18.13;6.27;;;;;;;;;;5014104;28;20399;-46
2022/02/27 04:01:27;;;;;;;8.18;5.70;;;;;;;;;;5014203;28;20407;-46
2022/02/27 04:03:53;;;;;;;11.07;6.35;;;;;;;;;;5013971;28;20200;-45
2022/02/27 04:06:20;;;;;;;17.88;6.13;;;;;;;;;;5014177;28;20183;-45
2022/02/27 04:08:46;;;;;;;12.32;6.40;;;;;;;;;;5013960;28;20266;-45
2022/02/27 04:11:12;;;;;;;12.13;5.47;;;;;;;;;;5013727;28;20593;-45
2022/02/27 04:13:38;;;;;;;10.30;5.20;;;;;;;;;;5013610;28;20751;-46
2022/02/27 04:16:04;;;;;;;14.63;6.70;;;;;;;;;;5013818;28;20399;-46
2022/02/27 04:18:30;;;;;;;14.63;5.28;;;;;;;;;;5013711;28;20431;-46
2022/02/27 04:20:56;;;;;;;11.73;5.50;;;;;;;;;;5013736;28;20250;-45
2022/02/27 04:23:22;;;;;;;13.27;6.30;;;;;;;;;;5013615;28;20451;-45
2022/02/27 04:25:50;;;;;;;10.70;5.30;;;;;;;;;;5013677;28;20183;-45
2022/02/27 04:28:16;;;;;;;8.35;5.13;;;;;;;;;;5013085;28;20187;-46
2022/02/27 04:30:42;;;;;;;6.32;5.35;;;;;;;;;;5013495;28;20176;-45
2022/02/27 04:33:08;;;;;;;10.13;5.35;;;;;;;;;;5013687;28;20297;-45
2022/02/27 04:35:34;;;;;;;9.43;5.73;;;;;;;;;;5013355;28;20173;-45
2022/02/27 04:37:59;;;;;;;15.13;6.53;;;;;;;;;;5013268;28;20435;-45
2022/02/27 04:40:25;;;;;;;10.73;6.30;;;;;;;;;;5013172;28;20408;-46
2022/02/27 04:42:51;;;;;;;10.87;6.23;;;;;;;;;;5012828;28;20975;-45
2022/02/27 04:45:17;;;;;;;8.00;4.90;;;;;;;;;;5013331;28;20419;-45
2022/02/27 04:47:43;;;;;;;9.98;5.75;;;;;;;;;;5013171;28;20419;-46
2022/02/27 04:50:10;;;;;;;15.10;6.10;;;;;;;;;;5012850;28;20664;-45
2022/02/27 04:52:36;;;;;;;14.23;6.30;;;;;;;;;;5012983;28;20406;-45
2022/02/27 04:55:02;;;;;;;10.85;5.75;;;;;;;;;;5013113;28;20214;-45
2022/02/27 04:57:28;;;;;;;13.13;6.35;;;;;;;;;;5012706;28;20220;-46
2022/02/27 04:59:54;;;;;;;11.43;6.18;;;;;;;;;;5012816;28;20168;-46
2022/02/27 05:02:20;;;;;;;10.23;6.55;;;;;;;;;;5013014;28;20226;-45
2022/02/27 05:04:46;;;;;;;13.00;6.10;;;;;;;;;;5013077;28;20603;-46
2022/02/27 05:07:12;;;;;;;10.00;5.53;;;;;;;;;;5012809;28;20932;-45
2022/02/27 05:09:38;;;;;;;8.23;5.50;;;;;;;;;;5012572;28;20399;-46
2022/02/27 05:12:04;;;;;;;9.13;5.73;;;;;;;;;;5012531;28;20418;-45
2022/02/27 05:14:30;;;;;;;12.23;5.28;;;;;;;;;;5012737;28;20486;-46
2022/02/27 05:16:56;;;;;;;11.00;5.57;;;;;;;;;;5012586;28;20191;-46
2022/02/27 05:19:21;;;;;;;17.57;6.77;;;;;;;;;;5012450;28;20415;-45
2022/02/27 05:21:47;;;;;;;16.37;6.90;;;;;;;;;;5012445;28;20414;-46
2022/02/27 05:24:13;;;;;;;11.73;5.43;;;;;;;;;;5012435;28;20459;-45
2022/02/27 05:26:39;;;;;;;9.73;5.93;;;;;;;;;;5012355;28;20517;-45
2022/02/27 05:29:05;;;;;;;9.33;6.57;;;;;;;;;;5012442;28;20896;-46
2022/02/27 05:31:31;;;;;;;15.23;7.37;;;;;;;;;;5012411;28;20440;-45
2022/02/27 05:33:57;;;;;;;12.03;7.27;;;;;;;;;;5012156;28;20553;-45
2022/02/27 05:36:23;;;;;;;9.60;5.72;;;;;;;;;;5012303;28;20494;-45
2022/02/27 05:38:49;;;;;;;13.80;5.78;;;;;;;;;;5012276;28;20244;-45
2022/02/27 05:41:15;;;;;;;9.50;6.00;;;;;;;;;;5012161;28;20648;-46
2022/02/27 05:43:42;;;;;;;12.20;5.67;;;;;;;;;;5012248;28;20977;-46
2022/02/27 05:46:08;;;;;;;12.80;6.32;;;;;;;;;;5012155;28;20399;-45
2022/02/27 05:48:34;;;;;;;12.07;6.57;;;;;;;;;;5012165;28;20196;-45
2022/02/27 05:51:00;;;;;;;16.57;6.60;;;;;;;;;;5011852;28;20176;-45
2022/02/27 05:53:25;;;;;;;13.67;7.20;;;;;;;;;;5011581;28;20403;-45
2022/02/27 05:55:56;;;;;;;9.23;6.43;;;;;;;;;;5011717;28;20438;-45
2022/02/27 05:58:23;;;;;;;8.00;5.28;;;;;;;;;;5011999;28;20433;-46
2022/02/27 06:00:49;;;;;;;13.23;7.07;;;;;;;;;;5011770;28;20164;-45
2022/02/27 06:03:16;;;;;;;10.60;6.10;;;;;;;;;;5012659;28;20580;-44
2022/02/27 06:05:42;;;;;;;14.73;6.60;;;;;;;;;;5011869;28;20413;-45
2022/02/27 06:08:08;;;;;;;9.80;6.10;;;;;;;;;;5011571;28;20275;-45
2022/02/27 06:10:34;;;;;;;7.20;5.67;;;;;;;;;;5011401;28;20403;-45
2022/02/27 06:13:00;;;;;;;15.82;7.82;;;;;;;;;;5011489;28;20403;-45
2022/02/27 06:15:26;;;;;;;9.73;6.00;;;;;;;;;;5011590;28;20165;-45
2022/02/27 06:17:52;;;;;;;18.10;8.10;;;;;;;;;;5011550;28;20287;-45
2022/02/27 06:20:18;;;;;;;13.67;6.60;;;;;;;;;;5011490;28;20396;-44
2022/02/27 06:22:45;;;;;;;12.18;5.93;;;;;;;;;;5011402;28;20410;-45
2022/02/27 06:25:13;;;;;;;10.35;5.95;;;;;;;;;;5011438;28;20208;-45
2022/02/27 06:27:42;;;;;;;7.13;6.03;;;;;;;;;;5011378;28;20335;-44
2022/02/27 06:30:10;;;;;;;9.73;5.95;;;;;;;;;;5011244;28;20255;-45
2022/02/27 06:32:36;;;;;;;10.18;7.57;;;;;;;;;;5011377;28;20160;-45
2022/02/27 06:35:02;;;;;;;14.45;8.65;;;;;;;;;;5011460;28;20172;-45
2022/02/27 06:37:28;;;;;;;18.25;8.50;;;;;;;;;;5011177;28;20191;-44
2022/02/27 06:39:54;;;;;;;9.03;6.83;;;;;;;;;;5011172;28;20535;-44
2022/02/27 06:42:20;;;;;;;18.57;7.90;;;;;;;;;;5011231;28;20420;-44
2022/02/27 06:44:46;;;;;;;12.70;7.90;;;;;;;;;;5011262;28;20466;-44
2022/02/27 06:47:12;;;;;;;13.93;7.33;;;;;;;;;;5010913;28;20760;-45
2022/02/27 06:49:38;;;;;;;12.17;7.73;;;;;;;;;;5010792;28;20449;-45
2022/02/27 06:52:04;;;;;;;12.50;8.13;;;;;;;;;;5010599;28;20408;-44
2022/02/27 06:54:30;;;;;;;17.70;8.10;;;;;;;;;;5011230;28;20173;-44
2022/02/27 06:56:56;;;;;;;16.23;6.70;;;;;;;;;;5010631;28;20204;-45
2022/02/27 06:59:22;;;;;;;15.27;6.27;;;;;;;;;;5010658;28;20726;-45
2022/02/27 07:01:48;;;;;;;10.27;6.30;;;;;;;;;;5010617;28;20399;-45
2022/02/27 07:04:20;;;;;;;14.53;6.10;;;;;;;;;;5010769;28;20455;-66
2022/02/27 07:06:46;;;;;;;10.85;5.43;;;;;;;;;;5013939;28;20436;-45
2022/02/27 07:09:12;;;;;;;12.23;5.00;;;;;;;;;;5014630;28;20633;-45
2022/02/27 07:11:37;;;;;;;7.18;4.82;;;;;;;;;;5014760;28;20399;-45
2022/02/27 07:14:03;;;;;;;8.97;5.10;;;;;;;;;;5014480;28;20314;-45
2022/02/27 07:16:29;;;;;;;17.83;6.27;;;;;;;;;;5014652;28;20403;-45
2022/02/27 07:18:57;;;;;;;8.60;5.03;;;;;;;;;;5014273;28;20415;-45
2022/02/27 07:21:23;;;;;;;6.70;5.88;;;;;;;;;;5014358;28;20414;-45
2022/02/27 07:23:49;;;;;;;6.27;4.77;;;;;;;;;;5015429;28;20203;-45
2022/02/27 07:26:15;;;;;;;8.83;5.10;;;;;;;;;;5013973;28;20409;-45
2022/02/27 07:28:41;;;;;;;5.18;4.63;;;;;;;;;;5014261;28;20415;-46
2022/02/27 07:31:07;;;;;;;10.60;5.23;;;;;;;;;;5014009;28;20671;-46
2022/02/27 07:33:33;;;;;;;7.00;5.20;;;;;;;;;;5014211;28;20911;-46
2022/02/27 07:35:59;;;;;;;7.40;4.77;;;;;;;;;;5013572;28;20812;-45
2022/02/27 07:38:25;;;;;;;10.40;4.83;;;;;;;;;;5014494;28;20474;-46
2022/02/27 07:40:52;;;;;;;13.77;5.83;;;;;;;;;;5013604;28;20416;-46
2022/02/27 07:43:18;;;;;;;12.23;6.13;;;;;;;;;;5013490;28;20461;-45
2022/02/27 07:45:46;;;;;;;11.38;5.40;;;;;;;;;;5014179;28;20711;-45
2022/02/27 07:48:13;;;;;;;11.95;6.70;;;;;;;;;;5012208;28;20197;-46
2022/02/27 07:50:39;;;;;;;9.73;6.07;;;;;;;;;;5013718;28;20168;-46
2022/02/27 07:53:05;;;;;;;13.07;6.27;;;;;;;;;;5013976;28;20795;-46
2022/02/27 07:55:31;;;;;;;10.55;5.72;;;;;;;;;;5013483;28;20458;-46
2022/02/27 07:57:57;;;;;;;17.63;7.87;;;;;;;;;;5013514;28;20239;-46
2022/02/27 08:00:23;;;;;;;12.60;5.70;;;;;;;;;;5012938;28;20404;-46
2022/02/27 08:02:49;;;;;;;9.47;5.57;;;;;;;;;;5013508;28;20430;-46
2022/02/27 08:05:15;;;;;;;7.77;5.40;;;;;;;;;;5012963;28;20404;-46
2022/02/27 08:07:41;;;;;;;10.27;5.10;;;;;;;;;;5012279;28;20425;-46
2022/02/27 08:10:07;;;;;;;9.97;5.33;;;;;;;;;;5011910;28;20557;-46
2022/02/27 08:12:35;;;;;;;11.53;6.33;;;;;;;;;;5012497;28;20411;-46
2022/02/27 08:15:01;;;;;;;5.07;4.20;;;;;;;;;;5012946;28;20410;-46
2022/02/27 08:17:27;;;;;;;13.10;5.33;;;;;;;;;;5011358;28;20431;-46
2022/02/27 08:19:53;;;;;;;8.73;4.80;;;;;;;;;;5012675;28;20407;-46
2022/02/27 08:22:19;;;;;;;5.90;4.40;;;;;;;;;;5012573;28;20400;-46
2022/02/27 08:24:45;;;;;;;8.10;4.90;;;;;;;;;;5012772;28;20450;-46
2022/02/27 08:27:11;;;;;;;8.60;4.60;;;;;;;;;;5012763;28;20458;-46
2022/02/27 08:29:37;;;;;;;10.90;4.70;;;;;;;;;;5011548;28;20910;-46
2022/02/27 08:32:03;;;;;;;7.33;4.87;;;;;;;;;;5012247;28;20558;-46
2022/02/27 08:34:30;;;;;;;8.40;4.30;;;;;;;;;;5012938;28;20430;-46
2022/02/27 08:36:56;;;;;;;6.73;4.10;;;;;;;;;;5012623;28;20935;-46
2022/02/27 08:39:22;;;;;;;9.03;5.50;;;;;;;;;;5012974;28;20420;-46
2022/02/27 08:41:48;;;;;;;11.43;4.90;;;;;;;;;;5012993;28;20407;-46
2022/02/27 08:44:14;;;;;;;7.00;4.10;;;;;;;;;;5011807;28;20804;-46
2022/02/27 08:46:40;;;;;;;7.70;3.67;;;;;;;;;;5013021;28;20427;-46
2022/02/27 08:49:06;;;;;;;8.83;4.67;;;;;;;;;;5013106;28;20427;-46
2022/02/27 08:51:33;;;;;;;8.53;4.50;;;;;;;;;;5013134;28;20404;-46
2022/02/27 08:53:59;;;;;;;9.57;5.00;;;;;;;;;;5012976;28;20407;-46
2022/02/27 08:56:25;;;;;;;10.53;4.43;;;;;;;;;;5013314;28;20801;-46
2022/02/27 08:58:51;;;;;;;11.70;5.00;;;;;;;;;;5013124;28;20407;-46
2022/02/27 09:01:17;;;;;;;5.90;4.43;;;;;;;;;;5013438;28;20407;-46
2022/02/27 09:03:43;;;;;;;9.20;4.40;;;;;;;;;;5013113;28;20462;-46
2022/02/27 09:06:09;;;;;;;6.90;5.30;;;;;;;;;;5012920;28;20399;-46
2022/02/27 09:08:35;;;;;;;7.50;4.93;;;;;;;;;;5012822;28;20437;-46
2022/02/27 09:11:01;;;;;;;8.63;4.53;;;;;;;;;;5012551;28;20400;-46
2022/02/27 09:13:27;;;;;;;9.93;4.83;;;;;;;;;;5012604;28;20502;-46
2022/02/27 09:15:53;;;;;;;5.30;4.00;;;;;;;;;;5012698;28;20489;-46
2022/02/27 09:18:19;;;;;;;6.83;4.20;;;;;;;;;;5012557;28;20426;-46
2022/02/27 09:20:45;;;;;;;6.30;3.50;;;;;;;;;;5012410;28;20980;-46
2022/02/27 09:23:12;;;;;;;7.70;4.40;;;;;;;;;;5012303;28;20455;-47
2022/02/27 09:25:38;;;;;;;8.47;4.40;;;;;;;;;;5012237;28;20419;-47
2022/02/27 09:28:04;;;;;;;5.90;3.43;;;;;;;;;;5011953;28;20449;-47
2022/02/27 09:30:30;;;;;;;5.97;3.63;;;;;;;;;;5011651;28;20467;-47
2022/02/27 09:32:57;;;;;;;6.47;3.80;;;;;;;;;;5012408;28;20492;-47
2022/02/27 09:35:28;;;;;;;5.47;3.33;;;;;;;;;;5013478;28;20427;-47
2022/02/27 09:37:54;;;;;;;5.97;3.20;;;;;;;;;;5012423;28;20396;-47
2022/02/27 09:40:20;;;;;;;6.57;3.73;;;;;;;;;;5011930;28;20432;-47
2022/02/27 09:42:46;;;;;;;6.57;3.70;;;;;;;;;;5012074;28;20384;-47
2022/02/27 09:45:14;;;;;;;5.20;3.87;;;;;;;;;;5012071;28;20536;-47
2022/02/27 09:47:40;;;;;;;5.33;3.33;;;;;;;;;;5011855;28;20478;-47
2022/02/27 09:50:16;;;;;;;6.57;3.17;;;;;;;;;;5068228;28;20553;-47
2022/02/27 09:52:42;;;;;;;7.80;2.83;;;;;;;;;;5068282;28;20952;-47
2022/02/27 09:55:09;;;;;;;4.23;3.40;;;;;;;;;;5068253;28;20407;-47
2022/02/27 09:57:35;;;;;;;4.23;2.70;;;;;;;;;;5068032;28;20451;-47
2022/02/27 10:00:02;;;;;;;5.23;3.30;;;;;;;;;;5068045;28;20461;-47
2022/02/27 10:02:28;;;;;;;5.13;2.57;;;;;;;;;;5068012;28;20370;-47
2022/02/27 10:04:59;;;;;;;3.83;3.27;;;;;;;;;;5068383;28;20394;-46
2022/02/27 10:07:25;;;;;;;5.73;3.13;;;;;;;;;;5068227;28;20420;-47
2022/02/27 10:10:02;;;;;;;4.43;2.50;;;;;;;;;;5067664;28;20880;-47
2022/02/27 10:12:28;;;;;;;3.07;2.73;;;;;;;;;;5068124;28;20775;-47
2022/02/27 10:15:03;;;;;;;6.07;3.27;;;;;;;;;;5066670;28;20880;-47
2022/02/27 10:17:30;;;;;;;8.53;3.30;;;;;;;;;;5067905;28;20476;-47
2022/02/27 10:19:57;;;;;;;3.60;2.30;;;;;;;;;;5067813;28;20381;-47
2022/02/27 10:22:30;;;;;;;13.43;4.30;;;;;;;;;;5067929;28;20383;-47
2022/02/27 10:24:56;;;;;;;2.93;2.67;;;;;;;;;;5067734;28;20371;-47
2022/02/27 10:27:22;;;;;;;6.00;3.00;;;;;;;;;;5067216;28;20445;-47
2022/02/27 10:29:48;;;;;;;4.40;3.30;;;;;;;;;;5067395;28;20810;-47
2022/02/27 10:32:13;;;;;;;6.03;3.70;;;;;;;;;;5067359;28;20436;-47
2022/02/27 10:34:40;;;;;;;9.30;4.30;;;;;;;;;;5067536;28;20950;-47
2022/02/27 10:37:15;;;;;;;5.37;3.33;;;;;;;;;;5067077;28;20652;-47
2022/02/27 10:39:43;;;;;;;6.13;3.30;;;;;;;;;;5066862;28;20486;-47
2022/02/27 10:42:11;;;;;;;5.97;4.00;;;;;;;;;;5067097;28;20746;-47
2022/02/27 10:44:38;;;;;;;6.70;4.27;;;;;;;;;;5067150;28;20521;-47
2022/02/27 10:47:10;;;;;;;7.30;3.83;;;;;;;;;;5067062;28;20446;-47
2022/02/27 10:49:36;;;;;;;3.70;2.87;;;;;;;;;;5066556;28;20437;-47
2022/02/27 10:52:11;;;;;;;3.50;2.50;;;;;;;;;;5066940;28;20428;-47
2022/02/27 10:54:38;;;;;;;3.20;2.13;;;;;;;;;;5067126;28;20896;-47
2022/02/27 10:57:04;;;;;;;4.83;1.80;;;;;;;;;;5066816;28;20400;-47
2022/02/27 10:59:30;;;;;;;2.40;2.20;;;;;;;;;;5065071;28;20379;-46
2022/02/27 11:01:56;;;;;;;6.40;1.97;;;;;;;;;;5053052;28;20384;-47
2022/02/27 11:04:23;;;;;;;3.40;2.20;;;;;;;;;;5053551;28;20412;-47
2022/02/27 11:06:50;;;;;;;1.87;1.77;;;;;;;;;;5053709;28;20465;-47
2022/02/27 11:09:16;;;;;;;2.97;2.57;;;;;;;;;;5053154;28;20860;-47
2022/02/27 11:11:42;;;;;;;3.30;2.03;;;;;;;;;;5053408;28;20537;-47
2022/02/27 11:14:08;;;;;;;5.50;2.07;;;;;;;;;;5053226;28;20420;-47
2022/02/27 11:16:34;;;;;;;3.30;2.00;;;;;;;;;;5053148;28;20450;-47
2022/02/27 11:19:00;;;;;;;3.90;2.27;;;;;;;;;;5053176;28;20408;-47
2022/02/27 11:21:26;;;;;;;4.30;3.13;;;;;;;;;;5053648;28;20399;-48
2022/02/27 11:23:53;;;;;;;2.30;2.10;;;;;;;;;;5053154;28;20385;-47
2022/02/27 11:26:19;;;;;;;2.90;2.13;;;;;;;;;;5052918;28;20408;-47
2022/02/27 11:28:45;;;;;;;10.50;6.93;;;;;;;;;;5053002;28;20441;-47
2022/02/27 11:31:13;;;;;;;3.00;2.20;;;;;;;;;;5052621;28;20439;-46
2022/02/27 11:33:39;;;;;;;4.93;2.63;;;;;;;;;;5053053;28;20725;-47
2022/02/27 11:36:18;;;;;;;7.47;4.47;;;;;;;;;;5053145;28;20389;-47
2022/02/27 11:38:44;;;;;;;2.87;1.93;;;;;;;;;;5052790;28;20391;-47
2022/02/27 11:41:11;;;;;;;4.40;1.50;;;;;;;;;;5052790;28;20410;-47
2022/02/27 11:43:39;;;;;;;1.97;1.77;;;;;;;;;;5052733;28;20434;-47
2022/02/27 11:46:05;;;;;;;3.53;2.03;;;;;;;;;;5052989;28;20398;-47
2022/02/27 11:48:50;;;;;;;3.60;1.90;;;;;;;;;;5052602;28;20537;-47
2022/02/27 11:51:34;;;;;;;2.27;2.00;;;;;;;;;;5052616;28;20906;-47
2022/02/27 11:54:05;;;;;;;2.20;2.00;;;;;;;;;;5052428;28;20440;-46
2022/02/27 11:56:31;;;;;;;3.77;2.40;;;;;;;;;;5052513;28;20357;-47
2022/02/27 11:58:57;;;;;;;3.13;2.07;;;;;;;;;;5052384;28;20968;-47
2022/02/27 12:01:35;;;;;;;2.60;2.30;;;;;;;;;;5052475;28;20402;-47
2022/02/27 12:04:20;;;;;;;3.30;2.13;;;;;;;;;;5052402;28;20751;-47
2022/02/27 12:06:58;;;;;;;3.20;2.70;;;;;;;;;;5052044;28;20452;-47
2022/02/27 12:09:24;;;;;;;4.20;2.20;;;;;;;;;;5052259;28;20502;-47
2022/02/27 12:11:50;;;;;;;3.73;2.63;;;;;;;;;;5051852;28;20376;-47
2022/02/27 12:14:16;;;;;;;1.60;1.50;;;;;;;;;;5052574;28;20436;-47
2022/02/27 12:16:43;;;;;;;3.40;2.60;;;;;;;;;;5052408;28;20499;-47
2022/02/27 12:19:22;;;;;;;2.27;2.07;;;;;;;;;;5051998;28;20878;-47
2022/02/27 12:21:50;;;;;;;2.63;2.30;;;;;;;;;;5052135;28;20508;-47
2022/02/27 12:24:24;;;;;;;2.53;2.00;;;;;;;;;;5052042;28;20391;-47
2022/02/27 12:26:51;;;;;;;4.17;2.50;;;;;;;;;;5052057;28;20425;-47
2022/02/27 12:29:28;;;;;;;2.10;1.90;;;;;;;;;;5052060;28;20442;-47
2022/02/27 12:31:55;;;;;;;5.20;2.10;;;;;;;;;;5052156;28;20425;-47
2022/02/27 12:34:21;;;;;;;1.97;1.73;;;;;;;;;;5051892;28;20396;-47
2022/02/27 12:36:50;;;;;;;3.10;1.90;;;;;;;;;;5052008;28;20403;-47
2022/02/27 12:39:16;;;;;;;4.43;2.20;;;;;;;;;;5051167;28;20433;-47
2022/02/27 12:41:44;;;;;;;8.80;2.20;;;;;;;;;;5051797;28;20385;-48
2022/02/27 12:44:12;;;;;;;5.53;2.13;;;;;;;;;;5051682;28;20762;-47
2022/02/27 12:46:38;;;;;;;5.00;2.53;;;;;;;;;;5051633;28;20406;-47
2022/02/27 12:51:50;;;;;;;8.00;4.17;;;;;;;;;;5051932;28;20786;-48
2022/02/27 12:54:19;;;;;;;2.40;2.23;;;;;;;;;;5051622;28;20400;-47
2022/02/27 12:56:54;;;;;;;4.63;2.30;;;;;;;;;;5051481;28;20417;-47
2022/02/27 12:59:20;;;;;;;4.80;2.27;;;;;;;;;;5051408;28;20400;-47
2022/02/27 13:01:53;;;;;;;4.07;2.60;;;;;;;;;;5051395;28;20401;-46
2022/02/27 13:04:18;;;;;;;2.40;2.10;;;;;;;;;;5052104;28;20398;-47
2022/02/27 13:06:45;;;;;;;2.40;1.90;;;;;;;;;;5051383;28;20983;-47
2022/02/27 13:09:12;;;;;;;2.80;2.30;;;;;;;;;;5050993;28;20445;-47
2022/02/27 13:11:41;;;;;;;2.50;2.27;;;;;;;;;;5051360;28;20402;-46
2022/02/27 13:14:08;;;;;;;4.67;2.67;;;;;;;;;;5051102;28;20393;-47
2022/02/27 13:16:34;;;;;;;3.60;2.47;;;;;;;;;;5051185;28;20405;-47
2022/02/27 13:19:00;;;;;;;3.93;2.57;;;;;;;;;;5050866;28;20411;-47
2022/02/27 13:21:27;;;;;;;3.00;2.30;;;;;;;;;;5051362;28;20438;-47
2022/02/27 13:23:59;;;;;;;4.03;2.37;;;;;;;;;;5050923;28;20414;-47
2022/02/27 13:26:27;;;;;;;3.10;2.37;;;;;;;;;;5051032;28;20377;-47
2022/02/27 13:28:54;;;;;;;2.77;2.40;;;;;;;;;;5050945;28;20454;-47
2022/02/27 13:31:20;;;;;;;4.50;2.17;;;;;;;;;;5051254;28;20399;-46
2022/02/27 13:33:48;;;;;;;4.07;2.43;;;;;;;;;;5051181;28;20407;-47
2022/02/27 13:36:14;;;;;;;4.90;2.33;;;;;;;;;;5051217;28;20495;-47
2022/02/27 13:38:40;;;;;;;2.83;2.30;;;;;;;;;;5050909;28;20496;-47
2022/02/27 13:41:06;;;;;;;3.00;2.30;;;;;;;;;;5050770;28;20462;-47
2022/02/27 13:43:38;;;;;;;2.67;2.20;;;;;;;;;;5050902;28;20445;-48
2022/02/27 13:46:06;;;;;;;3.50;2.40;;;;;;;;;;5051001;28;20395;-47
2022/02/27 13:48:33;;;;;;;3.23;2.20;;;;;;;;;;5050607;28;20459;-47
2022/02/27 13:51:00;;;;;;;3.30;2.33;;;;;;;;;;5050761;28;20391;-48
2022/02/27 13:53:30;;;;;;;2.80;2.27;;;;;;;;;;5050612;28;20440;-47
2022/02/27 13:56:07;;;;;;;2.33;2.13;;;;;;;;;;5050957;28;20451;-46
2022/02/27 13:58:33;;;;;;;4.60;2.40;;;;;;;;;;5050670;28;20510;-47
2022/02/27 14:01:00;;;;;;;6.60;2.50;;;;;;;;;;5050430;28;20469;-47
2022/02/27 14:03:32;;;;;;;3.70;2.70;;;;;;;;;;5050670;28;20403;-47
2022/02/27 14:05:59;;;;;;;4.40;2.30;;;;;;;;;;5050392;28;20416;-47
2022/02/27 14:08:26;;;;;;;3.03;2.17;;;;;;;;;;5050526;28;20542;-47
2022/02/27 14:11:02;;;;;;;3.07;2.13;;;;;;;;;;5050519;28;20407;-47
2022/02/27 14:13:28;;;;;;;2.73;2.27;;;;;;;;;;5050596;28;20892;-47
2022/02/27 14:16:01;;;;;;;4.63;2.90;;;;;;;;;;5050651;28;20436;-47
2022/02/27 14:18:32;;;;;;;8.30;2.47;;;;;;;;;;5050419;28;20415;-48
2022/02/27 14:21:01;;;;;;;2.60;2.40;;;;;;;;;;5050389;28;20439;-47
2022/02/27 14:23:34;;;;;;;2.50;2.30;;;;;;;;;;5050563;28;20404;-47
2022/02/27 14:26:00;;;;;;;2.30;2.10;;;;;;;;;;5050859;28;20403;-47
2022/02/27 14:28:29;;;;;;;3.53;2.63;;;;;;;;;;5050614;28;20478;-47
2022/02/27 14:31:05;;;;;;;2.53;2.20;;;;;;;;;;5050204;28;20400;-47
2022/02/27 14:33:38;;;;;;;4.13;2.30;;;;;;;;;;5050328;28;20457;-47
2022/02/27 14:36:05;;;;;;;2.83;2.30;;;;;;;;;;5052577;28;20397;-47
2022/02/27 14:38:36;;;;;;;3.20;2.80;;;;;;;;;;5054194;28;20431;-46